Time;durP1;ratioP1;P1;durP2;ratioP2;P2;SDS_P1;SDS_P2;PMS_P1;PMS_P2;Temp;Humidity;BMP_temperature;BMP_pressure;BME280_temperature;BME280_humidity;BME280_pressure;Samples;Min_cycle;Max_cycle;Signal;HPM_P1;HPM_P2
2021/11/07 00:01:07;;;;;;;3.23;1.90;;;;;;;5.61;68.46;100426.31;1685159;82;21044;-56
2021/11/07 00:06:34;;;;;;;5.50;3.05;;;;;;;5.61;68.48;100428.50;1678115;83;21279;-56
2021/11/07 00:11:39;;;;;;;4.87;2.70;;;;;;;5.59;68.50;100425.45;1680158;83;21116;-56
2021/11/07 00:14:01;;;;;;;3.10;2.13;;;;;;;5.56;68.53;100428.16;1658472;83;21662;-56
2021/11/07 00:16:34;;;;;;;2.80;1.67;;;;;;;5.52;68.59;100426.02;1688756;82;22608;-56
2021/11/07 00:19:11;;;;;;;2.53;1.70;;;;;;;5.50;68.63;100427.83;1680223;83;21074;-56
2021/11/07 00:21:49;;;;;;;4.60;1.57;;;;;;;5.48;68.71;100429.63;1667645;83;21431;-56
2021/11/07 00:24:21;;;;;;;3.10;1.40;;;;;;;5.50;68.75;100422.48;1674749;82;21153;-56
2021/11/07 00:27:02;;;;;;;2.70;1.30;;;;;;;5.51;68.76;100424.25;1688069;82;21062;-56
2021/11/07 00:29:26;;;;;;;9.30;2.87;;;;;;;5.52;68.80;100423.34;1672828;83;21694;-56
2021/11/07 00:37:07;;;;;;;24.20;9.87;;;;;;;5.54;68.84;100404.60;1710530;81;21256;-56
2021/11/07 00:42:25;;;;;;;31.10;13.10;;;;;;;5.52;68.83;100400.65;1714489;81;22667;-56
2021/11/07 00:44:58;;;;;;;32.85;12.70;;;;;;;5.51;68.81;100397.55;1706543;81;21491;-55
2021/11/07 00:49:59;;;;;;;27.00;12.93;;;;;;;5.44;68.86;100397.23;1712665;81;21074;-55
2021/11/07 00:52:31;;;;;;;29.87;12.33;;;;;;;5.40;68.89;100400.84;1715109;81;21293;-55
2021/11/07 00:55:15;;;;;;;20.50;10.23;;;;;;;5.37;69.00;100398.67;1715550;81;20967;-57
2021/11/07 00:57:43;;;;;;;14.00;8.17;;;;;;;5.36;69.06;100388.44;1715333;81;20904;-57
2021/11/07 01:00:23;;;;;;;18.70;9.27;;;;;;;5.37;69.12;100383.98;1714454;81;20935;-57
2021/11/07 01:02:41;;;;;;;16.53;9.87;;;;;;;5.38;69.14;100384.41;1708326;81;21426;-57
2021/11/07 01:05:17;;;;;;;20.33;12.63;;;;;;;5.39;69.19;100384.84;1710438;81;20892;-57
2021/11/07 01:07:44;;;;;;;21.77;13.60;;;;;;;5.38;69.22;100375.07;1719686;81;21079;-57
2021/11/07 01:10:10;;;;;;;18.17;12.60;;;;;;;5.38;69.26;100380.41;1712450;81;20958;-57
2021/11/07 01:12:39;;;;;;;17.00;11.70;;;;;;;5.36;69.26;100379.58;1710319;81;20959;-57
2021/11/07 01:15:07;;;;;;;16.17;11.97;;;;;;;5.32;69.32;100376.95;1711970;81;20998;-57
2021/11/07 01:17:34;;;;;;;10.77;8.33;;;;;;;5.30;69.34;100369.88;1717728;81;20931;-58
2021/11/07 01:20:00;;;;;;;11.03;7.83;;;;;;;5.27;69.38;100370.80;1716404;81;21126;-57
2021/11/07 01:25:06;;;;;;;6.57;3.53;;;;;;;5.18;69.48;100372.31;1714214;81;20988;-57
2021/11/07 01:27:39;;;;;;;3.47;2.53;;;;;;;5.13;69.56;100363.93;1709864;81;20971;-57
2021/11/07 01:30:08;;;;;;;4.17;2.93;;;;;;;5.13;69.64;100359.92;1714158;81;20911;-57
2021/11/07 01:32:39;;;;;;;8.70;2.73;;;;;;;5.11;69.72;100359.95;1722226;80;21440;-57
2021/11/07 01:35:13;;;;;;;2.83;2.17;;;;;;;5.11;69.80;100357.73;1694358;82;20922;-57
2021/11/07 01:37:38;;;;;;;4.60;2.60;;;;;;;5.09;69.86;100352.45;1728557;80;20910;-57
2021/11/07 01:40:14;;;;;;;5.33;3.50;;;;;;;5.10;70.02;100354.66;1726392;80;20879;-57
2021/11/07 01:42:42;;;;;;;3.30;1.90;;;;;;;5.10;70.03;100347.55;1725893;80;20927;-57
2021/11/07 01:45:20;;;;;;;5.07;2.40;;;;;;;5.10;70.06;100356.88;1730630;80;20883;-57
2021/11/07 01:47:47;;;;;;;4.00;2.00;;;;;;;5.08;70.12;100354.69;1669575;83;22426;-57
2021/11/07 01:50:07;;;;;;;3.43;2.73;;;;;;;5.08;70.12;100355.13;1727956;80;21006;-57
2021/11/07 01:52:39;;;;;;;3.43;1.90;;;;;;;5.05;70.20;100357.39;1724966;80;20989;-57
2021/11/07 01:55:04;;;;;;;5.07;3.00;;;;;;;5.01;70.24;100349.02;1723050;80;21112;-57
2021/11/07 01:57:32;;;;;;;3.93;2.40;;;;;;;4.97;70.35;100345.96;1723270;80;22927;-57
2021/11/07 02:00:02;;;;;;;4.97;2.60;;;;;;;4.93;70.47;100353.12;1722500;80;21132;-57
2021/11/07 02:02:34;;;;;;;3.43;1.70;;;;;;;4.91;70.58;100341.62;1722732;80;21319;-57
2021/11/07 02:05:01;;;;;;;3.67;1.77;;;;;;;4.90;70.68;100341.64;1723897;80;21037;-57
2021/11/07 02:07:27;;;;;;;3.47;1.80;;;;;;;4.92;70.78;100338.50;1720395;80;21244;-57
2021/11/07 02:09:53;;;;;;;2.80;2.00;;;;;;;4.94;70.88;100337.55;1722401;80;21602;-57
2021/11/07 02:12:20;;;;;;;3.70;2.00;;;;;;;4.97;70.89;100337.95;1724717;80;21521;-57
2021/11/07 02:14:46;;;;;;;8.40;2.53;;;;;;;4.98;70.94;100335.72;1725038;80;21558;-56
2021/11/07 02:17:13;;;;;;;5.60;2.70;;;;;;;5.01;70.94;100337.02;1720667;80;21089;-57
2021/11/07 02:19:44;;;;;;;4.70;2.00;;;;;;;5.02;70.98;100329.90;1722134;80;21125;-56
2021/11/07 02:24:39;;;;;;;3.13;1.97;;;;;;;5.05;71.00;100331.16;1862033;75;22075;-56
2021/11/07 02:27:05;;;;;;;2.87;2.10;;;;;;;4.99;71.00;100332.60;1834195;77;21000;-56
2021/11/07 02:29:33;;;;;;;5.60;2.33;;;;;;;4.96;71.02;100336.19;1840270;76;21164;-55
2021/11/07 02:31:59;;;;;;;5.07;3.03;;;;;;;4.93;71.10;100330.44;1833084;77;21021;-56
2021/11/07 02:34:27;;;;;;;4.47;2.20;;;;;;;4.92;71.15;100326.49;1836920;77;20993;-55
2021/11/07 02:36:54;;;;;;;4.37;1.97;;;;;;;4.90;71.20;100325.63;1836566;77;20953;-55
2021/11/07 02:39:22;;;;;;;2.27;1.50;;;;;;;4.89;71.29;100321.20;1834914;77;20958;-56
2021/11/07 02:41:48;;;;;;;3.90;1.50;;;;;;;4.89;71.33;100326.53;1832484;77;21530;-56
2021/11/07 02:44:33;;;;;;;3.50;1.63;;;;;;;4.91;71.37;100332.73;1839708;77;21396;-55
2021/11/07 02:47:04;;;;;;;4.17;1.63;;;;;;;4.92;71.45;100337.16;1829730;77;20890;-56
2021/11/07 02:49:31;;;;;;;2.23;2.03;;;;;;;4.93;71.48;100334.93;1839039;77;21041;-56
2021/11/07 02:51:59;;;;;;;4.23;2.30;;;;;;;4.94;71.47;100329.55;1839973;77;21072;-56
2021/11/07 02:54:26;;;;;;;3.53;2.00;;;;;;;4.94;71.44;100325.98;1833041;77;21145;-55
2021/11/07 02:56:53;;;;;;;2.43;1.87;;;;;;;4.93;71.41;100324.26;1838525;77;21030;-56
2021/11/07 02:59:24;;;;;;;6.03;2.17;;;;;;;4.92;71.38;100327.38;1831471;77;21542;-56
2021/11/07 03:01:52;;;;;;;5.53;1.57;;;;;;;4.90;71.38;100333.63;1836238;77;21459;-56
2021/11/07 03:04:18;;;;;;;3.27;1.60;;;;;;;4.86;71.43;100333.23;1832249;77;21118;-56
2021/11/07 03:06:45;;;;;;;4.20;2.03;;;;;;;4.82;71.48;100336.42;1834003;77;23149;-56
2021/11/07 03:09:21;;;;;;;2.73;1.70;;;;;;;4.80;71.50;100333.34;1833075;77;21211;-56
2021/11/07 03:11:50;;;;;;;5.70;2.00;;;;;;;4.78;71.55;100337.36;1836386;77;20941;-56
2021/11/07 03:14:21;;;;;;;3.77;1.93;;;;;;;4.77;71.62;100338.72;1836550;77;20898;-56
2021/11/07 03:16:49;;;;;;;4.37;2.43;;;;;;;4.75;71.68;100332.09;1834730;77;20984;-55
2021/11/07 03:19:15;;;;;;;4.43;2.40;;;;;;;4.74;71.75;100338.78;1834887;76;21428;-55
2021/11/07 03:21:42;;;;;;;3.60;2.07;;;;;;;4.75;71.78;100339.22;1836010;77;22346;-56
2021/11/07 03:24:11;;;;;;;3.10;2.40;;;;;;;4.75;71.81;100336.09;1831379;77;21060;-56
2021/11/07 03:26:38;;;;;;;4.60;2.33;;;;;;;4.73;71.79;100337.90;1836167;77;21338;-55
2021/11/07 03:29:07;;;;;;;5.60;3.03;;;;;;;4.71;71.75;100341.48;1836090;77;21399;-56
2021/11/07 03:34:11;;;;;;;3.60;2.07;;;;;;;4.65;71.82;100328.25;1831751;77;21032;-56
2021/11/07 03:36:49;;;;;;;5.30;2.47;;;;;;;4.61;71.84;100326.52;1834980;76;21641;-55
2021/11/07 03:39:15;;;;;;;3.60;2.43;;;;;;;4.58;71.86;100325.25;1835930;77;21056;-55
2021/11/07 03:41:42;;;;;;;4.40;2.50;;;;;;;4.55;71.92;100328.39;1841064;77;20937;-56
2021/11/07 03:44:09;;;;;;;4.63;2.27;;;;;;;4.56;72.01;100327.94;1836829;77;21085;-56
2021/11/07 03:46:36;;;;;;;3.67;2.23;;;;;;;4.57;72.03;100327.04;1835210;77;21143;-55
2021/11/07 03:49:04;;;;;;;5.90;2.33;;;;;;;4.57;72.06;100324.38;1833291;77;21069;-56
2021/11/07 03:51:31;;;;;;;3.27;2.60;;;;;;;4.58;72.09;100325.25;1838963;77;21075;-56
2021/11/07 03:53:58;;;;;;;4.13;3.40;;;;;;;4.58;72.11;100315.92;1831619;77;21017;-56
2021/11/07 03:56:27;;;;;;;4.37;2.53;;;;;;;4.56;72.11;100318.61;1839070;77;21069;-56
2021/11/07 03:58:54;;;;;;;5.23;3.13;;;;;;;4.56;72.13;100315.48;1836645;77;21045;-56
2021/11/07 04:01:20;;;;;;;7.20;3.80;;;;;;;4.55;72.11;100311.50;1832561;77;20972;-56
2021/11/07 04:03:47;;;;;;;8.13;3.47;;;;;;;4.53;72.12;100317.30;1831244;77;21004;-56
2021/11/07 04:06:14;;;;;;;4.83;2.27;;;;;;;4.50;72.12;100319.59;1834129;77;21478;-56
2021/11/07 04:08:40;;;;;;;3.20;2.20;;;;;;;4.48;72.18;100315.17;1835122;77;21488;-55
2021/11/07 04:11:08;;;;;;;5.53;3.03;;;;;;;4.47;72.22;100310.30;1837610;75;22276;-56
2021/11/07 04:13:38;;;;;;;2.67;2.00;;;;;;;4.48;72.25;100309.39;1833875;77;21339;-56
2021/11/07 04:16:04;;;;;;;7.10;2.87;;;;;;;4.48;72.29;100309.39;1833357;77;21044;-56
2021/11/07 04:18:31;;;;;;;5.17;2.73;;;;;;;4.49;72.25;100311.16;1843655;77;20894;-55
2021/11/07 04:20:57;;;;;;;5.10;2.90;;;;;;;4.49;72.29;100311.61;1833166;77;21082;-56
2021/11/07 04:23:24;;;;;;;4.93;3.03;;;;;;;4.49;72.20;100309.83;1833434;77;20890;-55
2021/11/07 04:25:50;;;;;;;5.03;2.90;;;;;;;4.47;72.20;100303.62;1815483;77;20867;-56
2021/11/07 04:28:19;;;;;;;4.63;3.13;;;;;;;4.45;72.16;100297.43;1815220;77;20855;-55
2021/11/07 04:30:46;;;;;;;9.00;4.33;;;;;;;4.42;72.07;100293.47;1815854;78;20943;-55
2021/11/07 04:33:14;;;;;;;4.67;3.23;;;;;;;4.39;72.04;100290.86;1818659;77;21598;-56
2021/11/07 04:35:41;;;;;;;6.27;4.53;;;;;;;4.35;72.06;100289.13;1810099;77;20871;-56
2021/11/07 04:38:07;;;;;;;3.77;2.93;;;;;;;4.30;72.04;100286.11;1816825;77;20933;-55
2021/11/07 04:40:33;;;;;;;5.07;3.53;;;;;;;4.25;72.08;100306.19;1780094;78;20914;-55
2021/11/07 04:43:00;;;;;;;6.77;4.33;;;;;;;4.21;72.12;100306.23;1784157;78;21352;-56
2021/11/07 04:45:26;;;;;;;5.40;3.47;;;;;;;4.16;72.22;100315.63;1751653;79;21341;-56
2021/11/07 04:47:53;;;;;;;5.63;3.40;;;;;;;4.12;72.33;100315.23;1782243;78;21243;-56
2021/11/07 04:50:19;;;;;;;7.40;4.47;;;;;;;4.09;72.42;100311.26;1779999;78;22154;-56
2021/11/07 04:52:46;;;;;;;4.40;3.53;;;;;;;4.08;72.51;100310.86;1759954;79;21072;-56
2021/11/07 04:55:13;;;;;;;5.53;3.40;;;;;;;4.07;72.63;100310.42;1781524;78;21141;-56
2021/11/07 04:57:42;;;;;;;8.23;4.50;;;;;;;4.05;72.66;100314.44;1786979;78;21122;-55
2021/11/07 05:00:18;;;;;;;5.20;4.63;;;;;;;4.03;72.69;100311.34;1753752;79;21079;-55
2021/11/07 05:02:45;;;;;;;4.63;4.07;;;;;;;4.00;72.76;100305.59;1755647;79;21044;-55
2021/11/07 05:05:12;;;;;;;5.50;4.20;;;;;;;3.96;72.80;100326.98;1758537;79;21956;-56
2021/11/07 05:07:38;;;;;;;5.60;4.60;;;;;;;3.93;72.87;100328.34;1758886;80;20981;-55
2021/11/07 05:10:06;;;;;;;8.87;4.27;;;;;;;3.88;72.96;100328.86;1779107;78;21089;-56
2021/11/07 05:12:32;;;;;;;5.63;3.20;;;;;;;3.86;73.05;100330.20;1784951;78;20946;-56
2021/11/07 05:14:59;;;;;;;3.83;3.10;;;;;;;3.86;73.17;100333.31;1784694;78;20958;-56
2021/11/07 05:17:26;;;;;;;4.57;2.90;;;;;;;3.86;73.24;100331.98;1782543;78;21108;-56
2021/11/07 05:19:52;;;;;;;5.97;3.63;;;;;;;3.85;73.32;100334.21;1781391;78;21068;-56
2021/11/07 05:22:18;;;;;;;6.17;3.87;;;;;;;3.86;73.40;100334.20;1776841;78;21116;-56
2021/11/07 05:24:44;;;;;;;5.00;4.23;;;;;;;3.87;73.45;100329.30;1778476;78;21084;-56
2021/11/07 05:27:11;;;;;;;4.10;3.70;;;;;;;3.85;73.40;100339.09;1780486;78;21094;-56
2021/11/07 05:29:38;;;;;;;5.53;3.93;;;;;;;3.85;73.49;100335.54;1745495;80;21374;-56
2021/11/07 05:32:05;;;;;;;6.93;4.77;;;;;;;3.84;73.54;100328.45;1778537;78;21483;-56
2021/11/07 05:34:32;;;;;;;6.33;4.33;;;;;;;3.83;73.57;100332.89;1764316;79;21138;-56
2021/11/07 05:36:59;;;;;;;4.70;4.07;;;;;;;3.85;73.56;100326.22;1763908;79;21068;-55
2021/11/07 05:39:25;;;;;;;5.17;3.23;;;;;;;3.88;73.58;100316.88;1761170;79;21107;-56
2021/11/07 05:41:52;;;;;;;4.57;3.27;;;;;;;3.90;73.59;100320.41;1760530;80;21084;-56
2021/11/07 05:44:18;;;;;;;5.93;4.13;;;;;;;3.93;73.63;100322.56;1762219;79;21517;-55
2021/11/07 05:46:44;;;;;;;6.87;4.53;;;;;;;3.98;73.60;100315.87;1758880;79;21350;-56
2021/11/07 05:49:11;;;;;;;5.53;4.07;;;;;;;4.01;73.63;100314.02;1759240;79;22566;-56
2021/11/07 05:51:37;;;;;;;7.33;4.50;;;;;;;4.08;73.58;100301.05;1767128;79;21072;-56
2021/11/07 05:54:04;;;;;;;5.63;4.03;;;;;;;4.14;73.50;100308.98;1762768;79;21474;-56
2021/11/07 05:56:33;;;;;;;7.30;5.33;;;;;;;4.21;73.41;100320.88;1736203;80;21111;-56
2021/11/07 05:58:59;;;;;;;7.90;5.17;;;;;;;4.25;73.29;100329.28;1757217;79;21090;-56
2021/11/07 06:01:26;;;;;;;5.57;4.60;;;;;;;4.28;73.20;100334.10;1757172;79;21080;-56
2021/11/07 06:03:52;;;;;;;4.60;3.73;;;;;;;4.34;73.09;100328.67;1759349;79;21167;-56
2021/11/07 06:06:19;;;;;;;8.00;3.17;;;;;;;4.40;72.97;100330.40;1761002;79;21004;-56
2021/11/07 06:08:46;;;;;;;5.90;3.80;;;;;;;4.45;72.94;100330.75;1761991;79;21155;-55
2021/11/07 06:11:12;;;;;;;10.17;5.03;;;;;;;4.53;72.81;100329.30;1762048;79;21562;-56
2021/11/07 06:13:38;;;;;;;5.43;4.27;;;;;;;4.56;72.74;100324.82;1761049;80;21057;-56
2021/11/07 06:16:05;;;;;;;6.00;4.63;;;;;;;4.64;72.67;100322.48;1760021;79;21068;-56
2021/11/07 06:18:31;;;;;;;5.60;4.17;;;;;;;4.70;72.49;100322.38;1759886;80;21095;-56
2021/11/07 06:20:59;;;;;;;5.97;3.60;;;;;;;4.75;72.40;100324.09;1756914;79;21131;-56
2021/11/07 06:23:25;;;;;;;9.83;6.43;;;;;;;4.80;72.28;100322.22;1761977;79;21521;-56
2021/11/07 06:25:52;;;;;;;5.63;4.20;;;;;;;4.85;72.16;100319.02;1766604;80;21049;-55
2021/11/07 06:28:20;;;;;;;9.50;4.50;;;;;;;4.89;72.08;100315.86;1766793;80;21037;-55
2021/11/07 06:30:48;;;;;;;6.10;4.33;;;;;;;4.91;72.03;100320.27;1769339;80;21208;-55
2021/11/07 06:33:16;;;;;;;6.07;3.97;;;;;;;4.97;71.90;100323.28;1766807;79;21104;-55
2021/11/07 06:35:43;;;;;;;6.97;3.37;;;;;;;5.03;71.84;100325.84;1758869;80;21158;-55
2021/11/07 06:38:09;;;;;;;8.03;4.17;;;;;;;5.09;71.75;100335.10;1763822;80;21082;-55
2021/11/07 06:40:35;;;;;;;4.13;3.33;;;;;;;5.17;71.67;100336.30;1758512;80;21120;-56
2021/11/07 06:43:02;;;;;;;6.07;4.60;;;;;;;5.26;71.52;100332.14;1756263;80;21334;-55
2021/11/07 06:45:28;;;;;;;6.53;3.63;;;;;;;5.35;71.38;100330.65;1759838;80;21528;-56
2021/11/07 06:47:55;;;;;;;5.83;4.77;;;;;;;5.43;71.18;100331.84;1757913;80;21722;-55
2021/11/07 06:50:21;;;;;;;8.90;4.83;;;;;;;5.48;70.92;100324.16;1764950;80;21523;-56
2021/11/07 06:52:47;;;;;;;7.10;4.23;;;;;;;5.52;70.81;100315.66;1767318;80;20942;-55
2021/11/07 06:55:14;;;;;;;6.37;5.00;;;;;;;5.57;70.75;100305.75;1760968;80;21061;-56
2021/11/07 06:57:42;;;;;;;8.03;6.23;;;;;;;5.64;70.66;100298.92;1763172;80;21073;-56
2021/11/07 07:00:12;;;;;;;8.27;6.37;;;;;;;5.69;70.52;100293.05;1761230;80;21443;-55
2021/11/07 07:02:40;;;;;;;12.77;9.40;;;;;;;5.75;70.45;100281.36;1761650;80;21039;-55
2021/11/07 07:05:10;;;;;;;8.53;5.63;;;;;;;5.83;70.32;100283.41;1763846;80;20899;-55
2021/11/07 07:07:41;;;;;;;6.67;4.23;;;;;;;5.92;70.26;100283.71;1758741;80;21069;-55
2021/11/07 07:10:10;;;;;;;6.40;4.20;;;;;;;6.01;70.18;100282.19;1762349;80;21518;-55
2021/11/07 07:12:45;;;;;;;4.47;3.50;;;;;;;6.08;70.05;100278.01;1760439;80;21226;-54
2021/11/07 07:15:13;;;;;;;5.93;4.57;;;;;;;6.17;69.86;100270.25;1758651;80;20958;-55
2021/11/07 07:17:49;;;;;;;8.07;5.07;;;;;;;6.25;69.67;100264.27;1763254;80;21041;-55
2021/11/07 07:20:26;;;;;;;6.75;4.20;;;;;;;6.34;69.52;100264.52;1759410;80;21088;-55
2021/11/07 07:30:36;;;;;;;5.63;5.03;;;;;;;6.67;68.78;100265.06;1753512;79;21502;-54
2021/11/07 07:35:26;;;;;;;9.33;4.57;;;;;;;6.78;68.35;100246.95;1746720;80;21086;-54
2021/11/07 07:37:50;;;;;;;5.93;3.93;;;;;;;6.84;68.19;100244.11;1778674;78;21711;-57
2021/11/07 07:40:17;;;;;;;4.50;2.87;;;;;;;6.93;68.11;100237.66;1753504;79;21363;-55
2021/11/07 07:42:44;;;;;;;7.27;3.87;;;;;;;7.02;67.96;100230.72;1780234;78;20912;-55
2021/11/07 07:45:10;;;;;;;4.90;3.27;;;;;;;7.11;67.79;100239.85;1777749;78;21517;-54
2021/11/07 07:47:37;;;;;;;7.07;4.27;;;;;;;7.20;67.68;100235.59;1776882;78;21652;-54
2021/11/07 07:50:05;;;;;;;6.70;3.87;;;;;;;7.31;67.30;100242.47;1768849;79;21409;-54
2021/11/07 07:52:31;;;;;;;3.67;2.93;;;;;;;7.39;67.17;100249.83;1773490;79;20973;-54
2021/11/07 07:54:58;;;;;;;4.80;3.70;;;;;;;7.48;67.05;100250.45;1769092;79;21070;-54
2021/11/07 07:57:25;;;;;;;7.53;4.03;;;;;;;7.57;66.89;100247.98;1766917;79;21088;-54
2021/11/07 07:59:51;;;;;;;5.57;3.90;;;;;;;7.64;66.70;100241.52;1765705;79;21115;-54
2021/11/07 08:02:18;;;;;;;7.10;3.87;;;;;;;7.72;66.44;100250.22;1764608;79;21135;-54
2021/11/07 08:04:44;;;;;;;5.47;3.87;;;;;;;7.79;66.29;100245.55;1765862;79;21044;-54
2021/11/07 08:07:11;;;;;;;4.33;3.30;;;;;;;7.86;66.30;100241.77;1765344;79;21100;-55
2021/11/07 08:09:37;;;;;;;6.70;3.30;;;;;;;7.94;66.13;100237.05;1768091;79;21053;-56
2021/11/07 08:12:05;;;;;;;3.75;3.37;;;;;;;8.03;65.94;100235.44;1767457;79;21048;-55
2021/11/07 08:14:31;;;;;;;6.90;3.43;;;;;;;8.10;65.61;100224.94;1768149;79;23087;-56
2021/11/07 08:16:58;;;;;;;5.22;2.85;;;;;;;8.18;65.55;100220.22;1766103;79;21294;-56
2021/11/07 08:19:25;;;;;;;4.22;3.30;;;;;;;8.28;65.58;100206.06;1764773;79;21452;-55
2021/11/07 08:21:52;;;;;;;4.75;2.72;;;;;;;8.38;65.27;100206.69;1767947;79;21677;-55
2021/11/07 08:24:18;;;;;;;4.70;2.83;;;;;;;8.43;65.08;100208.28;1770561;79;21096;-55
2021/11/07 08:26:47;;;;;;;3.83;3.20;;;;;;;8.49;64.83;100208.56;1800633;78;21110;-54
2021/11/07 08:29:15;;;;;;;4.72;3.08;;;;;;;8.54;64.68;100202.58;1775049;78;21030;-55
2021/11/07 08:31:44;;;;;;;3.40;2.92;;;;;;;8.55;64.41;100202.53;1799547;78;21025;-55
2021/11/07 08:34:11;;;;;;;6.15;2.65;;;;;;;8.58;64.45;100197.53;1786802;78;21000;-55
2021/11/07 08:36:49;;;;;;;5.03;3.73;;;;;;;8.60;64.46;100198.34;1801908;78;20862;-55
2021/11/07 08:39:25;;;;;;;5.25;3.45;;;;;;;8.62;64.37;100189.78;1786578;79;21268;-56
2021/11/07 08:42:07;;;;;;;4.13;3.00;;;;;;;8.65;64.32;100189.69;1770736;79;21499;-55
2021/11/07 09:00:31;;;;;;;4.75;4.25;;;;;;;9.04;63.95;100164.61;1798122;78;21060;-55
2021/11/07 09:03:19;;;;;;;3.62;3.17;;;;;;;9.10;63.81;100159.89;1760350;80;21061;-56
2021/11/07 09:08:17;;;;;;;4.45;3.50;;;;;;;9.23;63.49;100145.56;1761669;79;22151;-55
2021/11/07 09:10:44;;;;;;;5.20;4.20;;;;;;;9.29;63.33;100141.77;1764279;80;21088;-55
2021/11/07 09:13:11;;;;;;;3.62;3.00;;;;;;;9.32;63.11;100137.17;1784013;78;20992;-55
2021/11/07 09:15:40;;;;;;;3.62;3.00;;;;;;;9.36;62.91;100150.88;1796402;78;21095;-56
2021/11/07 09:18:09;;;;;;;4.20;3.72;;;;;;;9.38;62.53;100141.43;1804157;78;21052;-55
2021/11/07 09:20:50;;;;;;;5.20;4.10;;;;;;;9.35;62.38;100138.41;1801945;78;21139;-55
2021/11/07 09:23:25;;;;;;;5.67;3.15;;;;;;;9.35;62.26;100137.07;1797779;78;21112;-56
2021/11/07 09:28:25;;;;;;;7.62;3.83;;;;;;;9.40;62.34;100139.57;1773688;78;21115;-55
2021/11/07 09:30:56;;;;;;;4.35;3.50;;;;;;;9.43;62.26;100126.91;1798404;78;21212;-55
2021/11/07 09:33:24;;;;;;;6.28;4.45;;;;;;;9.46;62.30;100124.09;1799113;78;21399;-55
2021/11/07 09:35:57;;;;;;;4.55;3.62;;;;;;;9.47;62.19;100121.81;1801019;78;21102;-56
2021/11/07 09:38:18;;;;;;;6.08;3.58;;;;;;;9.50;62.03;100106.05;1792435;78;21194;-55
2021/11/07 09:40:47;;;;;;;4.65;4.20;;;;;;;9.54;61.75;100103.64;1803075;78;21084;-56
2021/11/07 09:43:38;;;;;;;4.58;3.42;;;;;;;9.59;61.47;100091.39;1803068;78;22111;-56
2021/11/07 09:46:04;;;;;;;4.62;4.05;;;;;;;9.64;61.45;100079.98;1796643;78;21121;-55
2021/11/07 09:48:30;;;;;;;5.97;4.00;;;;;;;9.72;61.33;100077.39;1807269;78;21411;-55
2021/11/07 09:50:52;;;;;;;8.85;5.75;;;;;;;9.81;61.34;100071.66;1768816;80;20910;-55
2021/11/07 09:53:19;;;;;;;5.45;4.30;;;;;;;9.91;60.95;100079.35;1766962;80;20965;-54
2021/11/07 09:55:47;;;;;;;6.15;4.55;;;;;;;9.95;60.75;100068.42;1772501;80;21119;-55
2021/11/07 09:58:14;;;;;;;3.65;3.30;;;;;;;10.02;60.45;100049.75;1781105;79;21228;-55
2021/11/07 10:00:52;;;;;;;5.08;3.37;;;;;;;10.09;60.19;100044.98;1807385;78;20971;-55
2021/11/07 10:03:21;;;;;;;6.83;5.03;;;;;;;10.14;59.73;100043.84;1808311;78;20933;-55
2021/11/07 10:05:51;;;;;;;5.55;4.10;;;;;;;10.21;59.41;100057.94;1787458;78;20920;-55
2021/11/07 10:08:19;;;;;;;6.03;5.42;;;;;;;10.21;59.28;100056.12;1784404;78;21092;-55
2021/11/07 10:11:04;;;;;;;6.67;5.83;;;;;;;10.23;59.23;100052.91;1812790;77;20941;-55
2021/11/07 10:13:33;;;;;;;6.53;5.33;;;;;;;10.29;59.29;100052.27;1783066;78;20878;-55
2021/11/07 10:16:06;;;;;;;4.50;4.00;;;;;;;10.33;59.11;100056.56;1771757;80;20906;-56
2021/11/07 10:21:22;;;;;;;4.67;4.28;;;;;;;10.37;58.70;100038.89;1787466;78;21085;-55
2021/11/07 10:24:03;;;;;;;5.65;5.10;;;;;;;10.40;58.54;100035.17;1803677;78;20958;-56
2021/11/07 10:26:41;;;;;;;3.70;3.40;;;;;;;10.40;58.35;100032.48;1788583;78;20934;-55
2021/11/07 10:29:08;;;;;;;5.72;3.42;;;;;;;10.41;57.94;100028.85;1803098;78;20898;-56
2021/11/07 10:31:44;;;;;;;3.98;3.15;;;;;;;10.41;57.81;100016.27;1775620;78;21514;-55
2021/11/07 10:40:17;;;;;;;5.85;5.15;;;;;;;10.50;57.51;100015.00;1781661;78;20937;-56
2021/11/07 10:54:24;;;;;;;6.05;3.95;;;;;;;10.60;57.16;99982.23;1841333;75;21142;-56
2021/11/07 10:57:18;;;;;;;4.30;3.90;;;;;;;10.63;57.08;99974.98;1836096;76;20866;-55
2021/11/07 11:00:13;;;;;;;3.92;3.58;;;;;;;10.63;56.81;99969.59;1838904;75;21271;-56
2021/11/07 11:02:55;;;;;;;3.45;2.58;;;;;;;10.63;56.75;99973.62;1803215;76;21111;-56
2021/11/07 11:05:38;;;;;;;4.85;4.45;;;;;;;10.63;56.72;99978.04;1840253;76;20949;-56
2021/11/07 11:08:18;;;;;;;4.12;3.83;;;;;;;10.63;56.71;99987.09;1833900;77;21149;-55
2021/11/07 11:11:19;;;;;;;5.27;4.27;;;;;;;10.58;56.81;99985.93;1832640;75;20969;-56
2021/11/07 11:13:47;;;;;;;3.52;2.98;;;;;;;10.53;56.94;99988.84;1835530;75;20980;-57
2021/11/07 11:16:30;;;;;;;3.98;3.55;;;;;;;10.48;57.06;99980.08;1836508;75;21025;-56
2021/11/07 11:25:10;;;;;;;4.75;3.52;;;;;;;10.37;57.31;99990.46;1832475;76;21354;-57
2021/11/07 11:32:58;;;;;;;;;;;;;;;10.29;57.68;99949.56;1819133;76;21090;-57
2021/11/07 11:35:33;;;;;;;7.03;5.67;;;;;;;10.29;57.62;99947.34;1815391;77;21036;-56
2021/11/07 11:43:18;;;;;;;3.45;3.12;;;;;;;10.22;57.68;99926.06;1751831;78;21131;-56
2021/11/07 11:45:46;;;;;;;3.75;3.45;;;;;;;10.21;57.73;99925.66;1780520;78;21076;-55
2021/11/07 12:00:20;;;;;;;8.93;5.20;;;;;;;10.28;58.94;99917.34;1779026;79;22566;-56
2021/11/07 12:02:38;;;;;;;4.65;3.47;;;;;;;10.29;58.84;99909.67;1754663;79;21264;-56
2021/11/07 12:05:29;;;;;;;5.58;3.65;;;;;;;10.28;58.76;99918.22;1725857;78;21063;-57
2021/11/07 12:08:29;;;;;;;4.42;3.33;;;;;;;10.29;58.83;99917.74;1773384;78;22444;-57
2021/11/07 12:11:01;;;;;;;5.22;3.70;;;;;;;10.29;58.78;99905.17;1775660;79;21116;-56
2021/11/07 12:13:39;;;;;;;7.75;5.83;;;;;;;10.31;58.79;99901.03;1706514;79;21041;-57
2021/11/07 12:16:07;;;;;;;4.37;3.75;;;;;;;10.28;58.76;99899.38;1774503;78;21095;-57
2021/11/07 12:18:29;;;;;;;5.58;3.83;;;;;;;10.27;58.65;99898.98;1782150;78;21504;-57
2021/11/07 12:20:57;;;;;;;4.03;3.37;;;;;;;10.24;58.32;99899.09;1745778;80;21096;-57
2021/11/07 12:23:31;;;;;;;4.65;3.67;;;;;;;10.20;58.15;99889.44;1749861;79;21116;-57
2021/11/07 12:25:56;;;;;;;6.40;3.95;;;;;;;10.17;57.96;99892.22;1761118;79;21052;-57
2021/11/07 12:28:48;;;;;;;4.65;4.25;;;;;;;10.12;58.02;99885.67;1748443;79;23150;-57
2021/11/07 12:31:16;;;;;;;5.30;3.80;;;;;;;10.09;58.03;99873.73;1747686;80;21322;-57
2021/11/07 12:34:05;;;;;;;5.08;3.22;;;;;;;10.06;58.26;99868.95;1752653;80;21068;-57
2021/11/07 12:36:34;;;;;;;4.97;3.45;;;;;;;10.05;58.39;99865.84;1749372;80;21013;-57
2021/11/07 12:41:43;;;;;;;7.45;5.08;;;;;;;10.03;58.66;99871.32;1749529;79;21082;-57
2021/11/07 12:44:19;;;;;;;7.60;4.15;;;;;;;10.01;59.01;99868.29;1746621;79;21033;-56
2021/11/07 12:47:04;;;;;;;5.87;4.58;;;;;;;9.97;59.30;99855.43;1751945;79;21048;-56
2021/11/07 12:49:28;;;;;;;6.75;5.37;;;;;;;9.95;59.49;99853.31;1718815;81;21076;-56
2021/11/07 12:52:16;;;;;;;7.03;5.50;;;;;;;9.94;59.67;99852.90;1718312;81;21341;-56
2021/11/07 12:54:43;;;;;;;10.53;6.28;;;;;;;9.93;59.70;99846.23;1759372;79;21111;-56
2021/11/07 12:57:15;;;;;;;7.22;5.70;;;;;;;9.92;59.98;99857.93;1755899;79;21110;-55
2021/11/07 12:59:53;;;;;;;7.47;5.12;;;;;;;9.88;59.91;99845.95;1757952;79;21428;-57
2021/11/07 13:02:31;;;;;;;11.57;5.83;;;;;;;9.86;60.00;99841.61;1759395;79;20951;-55
2021/11/07 13:05:15;;;;;;;6.62;5.42;;;;;;;9.82;59.91;99838.17;1717741;80;20929;-56
2021/11/07 13:07:49;;;;;;;4.97;4.47;;;;;;;9.80;60.03;99841.85;1760322;79;22318;-57
2021/11/07 13:10:48;;;;;;;8.08;5.70;;;;;;;9.76;60.22;99846.98;1732743;79;20978;-56
2021/11/07 13:12:51;;;;;;;4.83;4.33;;;;;;;9.73;60.43;99845.29;1755181;79;20945;-56
2021/11/07 13:15:28;;;;;;;10.28;4.70;;;;;;;9.70;60.71;99840.50;1729632;81;20961;-56
2021/11/07 13:28:57;;;;;;;9.10;7.47;;;;;;;9.49;61.32;99813.62;1760248;79;20934;-56
2021/11/07 13:31:22;;;;;;;9.65;8.78;;;;;;;9.44;61.42;99808.91;1758976;79;20944;-56
2021/11/07 13:33:44;;;;;;;11.43;7.15;;;;;;;9.41;61.54;99801.46;1756264;79;22085;-56
2021/11/07 13:36:13;;;;;;;9.40;7.75;;;;;;;9.37;61.61;99798.48;1750722;79;21412;-55
2021/11/07 13:38:46;;;;;;;9.53;7.30;;;;;;;9.34;61.58;99791.92;1750158;79;21058;-56
2021/11/07 13:41:24;;;;;;;7.70;6.83;;;;;;;9.29;61.61;99788.07;1756331;79;21458;-55